Time,TemperatureF,DewpointF,PressureIn,WindDirection,WindDirectionDegrees,WindSpeedMPH,WindSpeedGustMPH,Humidity,HourlyPrecipIn,Conditions,Clouds,dailyrainin,SoftwareType,DateUTC
2013-01-19 00:11:00,35.7,24.0,30.44,South,175,8.0,11.0,63,0.00,,,0.00,weatherlink.com 1.10,2013-01-19 05:11:00,
2013-01-19 00:26:00,35.8,25.0,30.43,SSE,155,2.0,8.0,64,0.00,,,0.00,weatherlink.com 1.10,2013-01-19 05:26:00,
2013-01-19 00:41:00,35.9,25.0,30.43,South,188,5.0,8.0,65,0.00,,,0.00,weatherlink.com 1.10,2013-01-19 05:41:00,
2013-01-19 00:56:00,36.1,25.0,30.43,South,190,4.0,11.0,65,0.00,,,0.00,weatherlink.com 1.10,2013-01-19 05:56:00,
2013-01-19 01:12:00,36.2,26.0,30.42,South,173,4.0,11.0,66,0.00,,,0.00,weatherlink.com 1.10,2013-01-19 06:12:00,
2013-01-19 01:27:00,36.5,26.0,30.42,South,180,3.0,13.0,66,0.00,,,0.00,weatherlink.com 1.10,2013-01-19 06:27:00,
2013-01-19 01:42:00,36.5,26.0,30.42,SSE,153,5.0,9.0,67,0.00,,,0.00,weatherlink.com 1.10,2013-01-19 06:42:00,
2013-01-19 01:57:00,36.7,27.0,30.42,South,177,5.0,11.0,69,0.00,,,0.00,weatherlink.com 1.10,2013-01-19 06:57:00,
2013-01-19 02:12:00,36.7,27.0,30.42,South,176,8.0,11.0,69,0.00,,,0.00,weatherlink.com 1.10,2013-01-19 07:12:00,
2013-01-19 02:27:00,36.6,28.0,30.42,South,181,5.0,9.0,70,0.00,,,0.00,weatherlink.com 1.10,2013-01-19 07:27:00,
2013-01-19 02:42:00,36.5,28.0,30.42,SSE,150,1.0,9.0,71,0.00,,,0.00,weatherlink.com 1.10,2013-01-19 07:42:00,
2013-01-19 02:57:00,36.6,28.0,30.41,SSE,158,2.0,9.0,72,0.00,,,0.00,weatherlink.com 1.10,2013-01-19 07:57:00,
2013-01-19 03:12:00,36.6,28.0,30.41,South,173,4.0,10.0,72,0.00,,,0.00,weatherlink.com 1.10,2013-01-19 08:12:00,
2013-01-19 03:27:00,36.6,28.0,30.41,South,179,6.0,10.0,72,0.00,,,0.00,weatherlink.com 1.10,2013-01-19 08:27:00,
2013-01-19 03:42:00,36.5,28.0,30.40,SSE,157,6.0,11.0,72,0.00,,,0.00,weatherlink.com 1.10,2013-01-19 08:42:00,
2013-01-19 03:57:00,36.3,28.0,30.40,South,169,4.0,11.0,73,0.00,,,0.00,weatherlink.com 1.10,2013-01-19 08:57:00,
2013-01-19 04:12:00,36.2,29.0,30.40,South,180,6.0,9.0,74,0.00,,,0.00,weatherlink.com 1.10,2013-01-19 09:12:00,
2013-01-19 04:27:00,36.2,28.0,30.39,South,175,6.0,8.0,73,0.00,,,0.00,weatherlink.com 1.10,2013-01-19 09:27:00,
2013-01-19 04:42:00,36.4,29.0,30.39,SE,146,2.0,9.0,73,0.00,,,0.00,weatherlink.com 1.10,2013-01-19 09:42:00,
2013-01-19 04:57:00,36.1,28.0,30.39,SE,136,1.0,10.0,73,0.00,,,0.00,weatherlink.com 1.10,2013-01-19 09:57:00,
2013-01-19 05:12:00,36.0,28.0,30.39,SSE,167,4.0,10.0,73,0.00,,,0.00,weatherlink.com 1.10,2013-01-19 10:12:00,
2013-01-19 05:27:00,35.7,29.0,30.39,ESE,121,3.0,9.0,75,0.00,,,0.00,weatherlink.com 1.10,2013-01-19 10:27:00,
2013-01-19 05:42:00,35.7,28.0,30.39,South,172,3.0,9.0,74,0.00,,,0.00,weatherlink.com 1.10,2013-01-19 10:42:00,
2013-01-19 05:57:00,35.6,28.0,30.39,South,178,4.0,10.0,75,0.00,,,0.00,weatherlink.com 1.10,2013-01-19 10:57:00,
2013-01-19 06:12:00,35.7,29.0,30.39,South,184,9.0,10.0,75,0.00,,,0.00,weatherlink.com 1.10,2013-01-19 11:12:00,
2013-01-19 07:57:00,36.2,28.0,30.37,South,174,4.0,10.0,73,0.00,,,0.00,weatherlink.com 1.10,2013-01-19 12:57:00,
2013-01-19 08:12:00,36.4,29.0,30.37,SSW,207,5.0,11.0,73,0.00,,,0.00,weatherlink.com 1.10,2013-01-19 13:12:00,
2013-01-19 08:27:00,36.7,28.0,30.38,SSE,155,6.0,12.0,71,0.00,,,0.00,weatherlink.com 1.10,2013-01-19 13:27:00,
2013-01-19 08:42:00,37.1,28.0,30.38,SE,137,5.0,10.0,71,0.00,,,0.00,weatherlink.com 1.10,2013-01-19 13:42:00,
2013-01-19 08:57:00,37.4,29.0,30.38,SSE,165,6.0,9.0,71,0.00,,,0.00,weatherlink.com 1.10,2013-01-19 13:57:00,
2013-01-19 09:12:00,37.7,29.0,30.37,SSE,167,5.0,10.0,70,0.00,,,0.00,weatherlink.com 1.10,2013-01-19 14:12:00,
2013-01-19 09:27:00,38.1,29.0,30.37,SSE,159,4.0,11.0,70,0.00,,,0.00,weatherlink.com 1.10,2013-01-19 14:27:00,
2013-01-19 09:42:00,38.7,29.0,30.37,SSE,158,4.0,12.0,68,0.00,,,0.00,weatherlink.com 1.10,2013-01-19 14:42:00,
2013-01-19 09:57:00,39.2,29.0,30.37,SSE,155,3.0,14.0,67,0.00,,,0.00,weatherlink.com 1.10,2013-01-19 14:57:00,
2013-01-19 10:13:00,39.7,29.0,30.36,SE,144,4.0,10.0,66,0.00,,,0.00,weatherlink.com 1.10,2013-01-19 15:13:00,
2013-01-19 10:28:00,40.4,30.0,30.35,SSE,159,2.0,10.0,66,0.00,,,0.00,weatherlink.com 1.10,2013-01-19 15:28:00,
2013-01-19 10:43:00,41.1,30.0,30.34,SSE,164,5.0,10.0,64,0.00,,,0.00,weatherlink.com 1.10,2013-01-19 15:43:00,
2013-01-19 10:58:00,41.9,30.0,30.33,South,185,6.0,9.0,64,0.00,,,0.00,weatherlink.com 1.10,2013-01-19 15:58:00,
2013-01-19 11:13:00,42.8,31.0,30.32,South,176,7.0,8.0,64,0.00,,,0.00,weatherlink.com 1.10,2013-01-19 16:13:00,
2013-01-19 11:28:00,43.5,32.0,30.31,SE,138,2.0,8.0,64,0.00,,,0.00,weatherlink.com 1.10,2013-01-19 16:28:00,
2013-01-19 11:43:00,44.0,32.0,30.29,South,179,7.0,8.0,63,0.00,,,0.00,weatherlink.com 1.10,2013-01-19 16:43:00,
2013-01-19 11:58:00,44.7,32.0,30.28,SSW,194,4.0,9.0,61,0.00,,,0.00,weatherlink.com 1.10,2013-01-19 16:58:00,
2013-01-19 12:13:00,45.2,33.0,30.27,SE,135,4.0,8.0,62,0.00,,,0.00,weatherlink.com 1.10,2013-01-19 17:13:00,
2013-01-19 12:28:00,45.8,33.0,30.25,SE,142,0.0,12.0,61,0.00,,,0.00,weatherlink.com 1.10,2013-01-19 17:28:00,
2013-01-19 13:28:00,47.9,33.0,30.21,SSE,155,2.0,10.0,56,0.00,,,0.00,weatherlink.com 1.10,2013-01-19 18:28:00,
2013-01-19 13:43:00,48.2,33.0,30.21,SSE,167,9.0,12.0,57,0.00,,,0.00,weatherlink.com 1.10,2013-01-19 18:43:00,
2013-01-19 13:58:00,48.3,34.0,30.20,South,178,5.0,12.0,58,0.00,,,0.00,weatherlink.com 1.10,2013-01-19 18:58:00,
2013-01-19 14:28:00,49.3,34.0,30.18,SSE,167,4.0,12.0,55,0.00,,,0.00,weatherlink.com 1.10,2013-01-19 19:28:00,
2013-01-19 14:44:00,49.5,34.0,30.17,South,185,2.0,8.0,56,0.00,,,0.00,weatherlink.com 1.10,2013-01-19 19:44:00,
2013-01-19 14:59:00,49.7,34.0,30.17,South,186,5.0,8.0,56,0.00,,,0.00,weatherlink.com 1.10,2013-01-19 19:59:00,
2013-01-19 15:14:00,50.0,34.0,30.16,SSE,163,0.0,7.0,54,0.00,,,0.00,weatherlink.com 1.10,2013-01-19 20:14:00,
2013-01-19 15:29:00,50.2,34.0,30.16,South,190,3.0,6.0,54,0.00,,,0.00,weatherlink.com 1.10,2013-01-19 20:29:00,
2013-01-19 15:59:00,49.2,34.0,30.14,SE,144,2.0,5.0,56,0.00,,,0.00,weatherlink.com 1.10,2013-01-19 20:59:00,
2013-01-19 16:14:00,48.9,34.0,30.14,South,188,2.0,9.0,57,0.00,,,0.00,weatherlink.com 1.10,2013-01-19 21:14:00,
2013-01-19 16:29:00,48.2,33.0,30.13,SSE,147,1.0,3.0,57,0.00,,,0.00,weatherlink.com 1.10,2013-01-19 21:29:00,
2013-01-19 16:44:00,47.5,33.0,30.12,SE,143,2.0,5.0,57,0.00,,,0.00,weatherlink.com 1.10,2013-01-19 21:44:00,
2013-01-19 16:59:00,46.9,33.0,30.12,SSW,212,2.0,4.0,60,0.00,,,0.00,weatherlink.com 1.10,2013-01-19 21:59:00,
2013-01-19 17:14:00,46.0,34.0,30.12,South,176,0.0,2.0,63,0.00,,,0.00,weatherlink.com 1.10,2013-01-19 22:14:00,
2013-01-19 17:29:00,45.6,34.0,30.12,South,173,1.0,3.0,63,0.00,,,0.00,weatherlink.com 1.10,2013-01-19 22:29:00,
2013-01-19 17:44:00,45.2,34.0,30.11,South,173,2.0,3.0,66,0.00,,,0.00,weatherlink.com 1.10,2013-01-19 22:44:00,
2013-01-19 17:59:00,44.6,35.0,30.11,South,179,0.0,4.0,69,0.00,,,0.00,weatherlink.com 1.10,2013-01-19 22:59:00,
2013-01-19 18:14:00,44.0,35.0,30.10,SSE,165,0.0,8.0,72,0.00,,,0.00,weatherlink.com 1.10,2013-01-19 23:14:00,
2013-01-19 18:29:00,43.5,36.0,30.10,South,185,3.0,4.0,74,0.00,,,0.00,weatherlink.com 1.10,2013-01-19 23:29:00,
2013-01-19 18:44:00,43.1,36.0,30.10,SSE,166,2.0,5.0,75,0.00,,,0.00,weatherlink.com 1.10,2013-01-19 23:44:00,
2013-01-19 18:59:00,43.0,36.0,30.11,South,184,0.0,3.0,75,0.00,,,0.00,weatherlink.com 1.10,2013-01-19 23:59:00,
2013-01-19 19:14:00,42.8,35.0,30.10,SE,131,1.0,3.0,75,0.00,,,0.00,weatherlink.com 1.10,2013-01-20 00:14:00,
2013-01-19 19:29:00,43.8,34.0,30.10,South,179,3.0,8.0,69,0.00,,,0.00,weatherlink.com 1.10,2013-01-20 00:29:00,
2013-01-19 19:59:00,44.4,35.0,30.10,South,175,2.0,8.0,70,0.00,,,0.00,weatherlink.com 1.10,2013-01-20 00:59:00,
2013-01-19 20:29:00,43.9,35.0,30.09,SSE,151,1.0,6.0,71,0.00,,,0.00,weatherlink.com 1.10,2013-01-20 01:29:00,
2013-01-19 20:44:00,43.8,35.0,30.08,SSE,167,2.0,5.0,70,0.00,,,0.00,weatherlink.com 1.10,2013-01-20 01:44:00,
2013-01-19 21:14:00,44.0,34.0,30.07,South,175,2.0,7.0,69,0.00,,,0.00,weatherlink.com 1.10,2013-01-20 02:14:00,
2013-01-19 21:29:00,44.0,34.0,30.07,South,170,5.0,10.0,67,0.00,,,0.00,weatherlink.com 1.10,2013-01-20 02:29:00,
2013-01-19 21:44:00,44.5,33.0,30.06,SE,139,3.0,8.0,65,0.00,,,0.00,weatherlink.com 1.10,2013-01-20 02:44:00,
2013-01-19 21:59:00,44.6,33.0,30.06,South,181,5.0,9.0,65,0.00,,,0.00,weatherlink.com 1.10,2013-01-20 02:59:00,
2013-01-19 22:14:00,44.6,33.0,30.05,South,185,7.0,10.0,65,0.00,,,0.00,weatherlink.com 1.10,2013-01-20 03:14:00,
2013-01-19 22:44:00,44.4,34.0,30.04,South,171,9.0,10.0,66,0.00,,,0.00,weatherlink.com 1.10,2013-01-20 03:44:00,
2013-01-19 22:59:00,44.2,33.0,30.04,South,171,6.0,9.0,65,0.00,,,0.00,weatherlink.com 1.10,2013-01-20 03:59:00,
2013-01-19 23:14:00,44.2,33.0,30.03,SSE,157,9.0,10.0,65,0.00,,,0.00,weatherlink.com 1.10,2013-01-20 04:14:00,
2013-01-19 23:29:00,44.3,33.0,30.02,SSE,155,4.0,11.0,64,0.00,,,0.00,weatherlink.com 1.10,2013-01-20 04:29:00,
2013-01-19 23:44:00,44.2,33.0,30.01,SE,134,6.0,13.0,64,0.00,,,0.00,weatherlink.com 1.10,2013-01-20 04:44:00,